sensor_id;sensor_type;location;lat;lon;timestamp;P1;durP1;ratioP1;P2;durP2;ratioP2
31238;SDS011;17871;31.584;74.450;2022-12-29T00:01:05;470.73;;;217.52;;
31238;SDS011;17871;31.584;74.450;2022-12-29T00:03:34;459.55;;;218.95;;
31238;SDS011;17871;31.584;74.450;2022-12-29T00:06:04;463.48;;;213.00;;
31238;SDS011;17871;31.584;74.450;2022-12-29T00:08:34;471.92;;;211.60;;
31238;SDS011;17871;31.584;74.450;2022-12-29T00:11:11;478.60;;;217.73;;
31238;SDS011;17871;31.584;74.450;2022-12-29T00:13:42;495.42;;;217.93;;
31238;SDS011;17871;31.584;74.450;2022-12-29T00:16:30;480.92;;;216.80;;
31238;SDS011;17871;31.584;74.450;2022-12-29T00:19:01;472.10;;;214.15;;
31238;SDS011;17871;31.584;74.450;2022-12-29T00:21:31;455.40;;;212.00;;
31238;SDS011;17871;31.584;74.450;2022-12-29T00:24:21;473.63;;;219.60;;
31238;SDS011;17871;31.584;74.450;2022-12-29T00:26:56;477.80;;;217.68;;
31238;SDS011;17871;31.584;74.450;2022-12-29T00:29:45;498.83;;;221.25;;
31238;SDS011;17871;31.584;74.450;2022-12-29T00:32:33;494.17;;;219.05;;
31238;SDS011;17871;31.584;74.450;2022-12-29T00:38:01;514.13;;;227.15;;
31238;SDS011;17871;31.584;74.450;2022-12-29T00:40:51;502.75;;;215.45;;
31238;SDS011;17871;31.584;74.450;2022-12-29T00:43:40;501.23;;;222.55;;
31238;SDS011;17871;31.584;74.450;2022-12-29T00:46:28;484.58;;;218.93;;
31238;SDS011;17871;31.584;74.450;2022-12-29T00:48:58;485.25;;;221.25;;
31238;SDS011;17871;31.584;74.450;2022-12-29T00:51:46;490.40;;;218.55;;
31238;SDS011;17871;31.584;74.450;2022-12-29T00:54:17;478.48;;;216.38;;
31238;SDS011;17871;31.584;74.450;2022-12-29T00:56:50;473.27;;;216.52;;
31238;SDS011;17871;31.584;74.450;2022-12-29T00:59:21;459.40;;;208.70;;
31238;SDS011;17871;31.584;74.450;2022-12-29T01:01:53;472.63;;;208.60;;
31238;SDS011;17871;31.584;74.450;2022-12-29T01:04:29;471.23;;;201.88;;
31238;SDS011;17871;31.584;74.450;2022-12-29T01:07:03;451.10;;;197.38;;
31238;SDS011;17871;31.584;74.450;2022-12-29T01:09:34;478.85;;;208.80;;
31238;SDS011;17871;31.584;74.450;2022-12-29T01:12:24;455.52;;;194.48;;
31238;SDS011;17871;31.584;74.450;2022-12-29T01:15:10;447.77;;;198.52;;
31238;SDS011;17871;31.584;74.450;2022-12-29T01:17:43;463.02;;;209.18;;
31238;SDS011;17871;31.584;74.450;2022-12-29T01:20:14;447.85;;;201.73;;
31238;SDS011;17871;31.584;74.450;2022-12-29T01:22:44;464.70;;;204.18;;
31238;SDS011;17871;31.584;74.450;2022-12-29T01:25:19;587.72;;;294.00;;
31238;SDS011;17871;31.584;74.450;2022-12-29T01:27:49;725.03;;;378.15;;
31238;SDS011;17871;31.584;74.450;2022-12-29T01:30:20;496.95;;;243.98;;
31238;SDS011;17871;31.584;74.450;2022-12-29T01:32:52;460.45;;;213.73;;
31238;SDS011;17871;31.584;74.450;2022-12-29T01:35:22;455.33;;;208.23;;
31238;SDS011;17871;31.584;74.450;2022-12-29T01:37:52;437.48;;;194.07;;
31238;SDS011;17871;31.584;74.450;2022-12-29T01:40:23;429.50;;;189.68;;
31238;SDS011;17871;31.584;74.450;2022-12-29T01:42:53;440.88;;;187.90;;
31238;SDS011;17871;31.584;74.450;2022-12-29T01:45:24;424.73;;;190.65;;
31238;SDS011;17871;31.584;74.450;2022-12-29T01:47:58;434.10;;;195.95;;
31238;SDS011;17871;31.584;74.450;2022-12-29T01:50:52;407.50;;;185.20;;
31238;SDS011;17871;31.584;74.450;2022-12-29T01:53:27;421.25;;;197.02;;
31238;SDS011;17871;31.584;74.450;2022-12-29T01:56:02;400.10;;;192.25;;
31238;SDS011;17871;31.584;74.450;2022-12-29T01:58:37;409.50;;;184.63;;
31238;SDS011;17871;31.584;74.450;2022-12-29T02:01:14;402.30;;;186.45;;
31238;SDS011;17871;31.584;74.450;2022-12-29T02:03:48;387.48;;;182.63;;
31238;SDS011;17871;31.584;74.450;2022-12-29T02:06:31;409.02;;;181.75;;
31238;SDS011;17871;31.584;74.450;2022-12-29T02:09:06;416.50;;;187.48;;
31238;SDS011;17871;31.584;74.450;2022-12-29T02:11:37;406.83;;;185.73;;
31238;SDS011;17871;31.584;74.450;2022-12-29T02:14:09;390.47;;;178.27;;
31238;SDS011;17871;31.584;74.450;2022-12-29T02:16:45;404.27;;;177.63;;
31238;SDS011;17871;31.584;74.450;2022-12-29T02:22:23;381.00;;;173.75;;
31238;SDS011;17871;31.584;74.450;2022-12-29T02:36:59;376.77;;;174.00;;
31238;SDS011;17871;31.584;74.450;2022-12-29T02:43:00;407.38;;;184.60;;
31238;SDS011;17871;31.584;74.450;2022-12-29T02:51:18;486.08;;;179.55;;
31238;SDS011;17871;31.584;74.450;2022-12-29T02:53:53;429.05;;;178.73;;
31238;SDS011;17871;31.584;74.450;2022-12-29T02:56:43;387.55;;;177.50;;
31238;SDS011;17871;31.584;74.450;2022-12-29T02:59:13;387.15;;;177.90;;
31238;SDS011;17871;31.584;74.450;2022-12-29T03:04:58;414.35;;;186.23;;
31238;SDS011;17871;31.584;74.450;2022-12-29T03:07:51;401.55;;;194.93;;
31238;SDS011;17871;31.584;74.450;2022-12-29T03:16:39;425.98;;;193.15;;
31238;SDS011;17871;31.584;74.450;2022-12-29T03:22:08;425.60;;;197.07;;
31238;SDS011;17871;31.584;74.450;2022-12-29T03:25:08;413.25;;;195.00;;
31238;SDS011;17871;31.584;74.450;2022-12-29T03:27:53;425.15;;;198.57;;
31238;SDS011;17871;31.584;74.450;2022-12-29T03:30:33;439.52;;;203.15;;
31238;SDS011;17871;31.584;74.450;2022-12-29T03:33:07;435.42;;;202.82;;
31238;SDS011;17871;31.584;74.450;2022-12-29T03:35:42;419.67;;;198.68;;
31238;SDS011;17871;31.584;74.450;2022-12-29T03:38:18;398.17;;;195.20;;
31238;SDS011;17871;31.584;74.450;2022-12-29T03:40:57;432.85;;;201.10;;
31238;SDS011;17871;31.584;74.450;2022-12-29T03:43:32;402.67;;;197.38;;
31238;SDS011;17871;31.584;74.450;2022-12-29T03:46:03;414.33;;;200.85;;
31238;SDS011;17871;31.584;74.450;2022-12-29T03:48:34;446.08;;;203.18;;
31238;SDS011;17871;31.584;74.450;2022-12-29T03:51:05;433.40;;;210.48;;
31238;SDS011;17871;31.584;74.450;2022-12-29T03:53:35;413.23;;;200.88;;
31238;SDS011;17871;31.584;74.450;2022-12-29T03:56:06;426.80;;;204.02;;
31238;SDS011;17871;31.584;74.450;2022-12-29T03:58:37;426.63;;;204.35;;
31238;SDS011;17871;31.584;74.450;2022-12-29T04:01:14;433.55;;;202.35;;
31238;SDS011;17871;31.584;74.450;2022-12-29T04:03:45;450.73;;;207.63;;
31238;SDS011;17871;31.584;74.450;2022-12-29T04:06:16;428.55;;;199.80;;
31238;SDS011;17871;31.584;74.450;2022-12-29T04:09:04;430.70;;;203.85;;
31238;SDS011;17871;31.584;74.450;2022-12-29T04:11:42;440.52;;;211.23;;
31238;SDS011;17871;31.584;74.450;2022-12-29T04:14:13;428.40;;;202.52;;
31238;SDS011;17871;31.584;74.450;2022-12-29T04:16:44;434.88;;;209.75;;
31238;SDS011;17871;31.584;74.450;2022-12-29T04:19:16;446.10;;;211.70;;
31238;SDS011;17871;31.584;74.450;2022-12-29T04:21:48;471.88;;;214.85;;
31238;SDS011;17871;31.584;74.450;2022-12-29T04:24:18;448.15;;;216.32;;
31238;SDS011;17871;31.584;74.450;2022-12-29T04:26:50;435.35;;;220.20;;
31238;SDS011;17871;31.584;74.450;2022-12-29T04:29:40;455.88;;;218.73;;
31238;SDS011;17871;31.584;74.450;2022-12-29T04:32:30;445.95;;;216.73;;
31238;SDS011;17871;31.584;74.450;2022-12-29T04:35:01;445.63;;;217.13;;
31238;SDS011;17871;31.584;74.450;2022-12-29T04:37:32;444.77;;;212.85;;
31238;SDS011;17871;31.584;74.450;2022-12-29T04:40:02;472.00;;;238.57;;
31238;SDS011;17871;31.584;74.450;2022-12-29T04:42:34;454.40;;;224.27;;
31238;SDS011;17871;31.584;74.450;2022-12-29T04:45:06;435.70;;;221.13;;
31238;SDS011;17871;31.584;74.450;2022-12-29T04:47:51;461.20;;;227.48;;
31238;SDS011;17871;31.584;74.450;2022-12-29T04:50:37;471.25;;;228.85;;
31238;SDS011;17871;31.584;74.450;2022-12-29T04:53:18;467.40;;;232.20;;
31238;SDS011;17871;31.584;74.450;2022-12-29T04:55:49;460.35;;;236.27;;
31238;SDS011;17871;31.584;74.450;2022-12-29T04:58:21;467.25;;;232.98;;
31238;SDS011;17871;31.584;74.450;2022-12-29T05:00:52;487.10;;;242.95;;
31238;SDS011;17871;31.584;74.450;2022-12-29T05:03:25;501.17;;;256.45;;
31238;SDS011;17871;31.584;74.450;2022-12-29T05:05:56;513.72;;;258.67;;
31238;SDS011;17871;31.584;74.450;2022-12-29T05:08:27;521.78;;;261.92;;
31238;SDS011;17871;31.584;74.450;2022-12-29T05:11:00;513.40;;;269.08;;
31238;SDS011;17871;31.584;74.450;2022-12-29T05:13:30;526.58;;;269.95;;
31238;SDS011;17871;31.584;74.450;2022-12-29T05:16:02;528.08;;;273.08;;
31238;SDS011;17871;31.584;74.450;2022-12-29T05:18:33;514.00;;;260.70;;
31238;SDS011;17871;31.584;74.450;2022-12-29T05:21:05;502.27;;;260.30;;
31238;SDS011;17871;31.584;74.450;2022-12-29T05:23:37;511.83;;;265.60;;
31238;SDS011;17871;31.584;74.450;2022-12-29T05:26:07;516.45;;;266.42;;
31238;SDS011;17871;31.584;74.450;2022-12-29T05:28:52;520.15;;;272.88;;
31238;SDS011;17871;31.584;74.450;2022-12-29T05:31:22;520.03;;;278.98;;
31238;SDS011;17871;31.584;74.450;2022-12-29T05:33:53;521.28;;;272.17;;
31238;SDS011;17871;31.584;74.450;2022-12-29T05:36:24;526.58;;;275.80;;
31238;SDS011;17871;31.584;74.450;2022-12-29T05:39:02;510.08;;;269.70;;
31238;SDS011;17871;31.584;74.450;2022-12-29T05:41:33;520.25;;;272.63;;
31238;SDS011;17871;31.584;74.450;2022-12-29T05:44:07;547.22;;;286.98;;
31238;SDS011;17871;31.584;74.450;2022-12-29T05:46:47;554.65;;;298.08;;
31238;SDS011;17871;31.584;74.450;2022-12-29T05:49:42;586.83;;;311.00;;
31238;SDS011;17871;31.584;74.450;2022-12-29T05:52:32;589.63;;;317.38;;
31238;SDS011;17871;31.584;74.450;2022-12-29T05:55:03;625.95;;;336.50;;
31238;SDS011;17871;31.584;74.450;2022-12-29T05:57:36;639.53;;;351.50;;
31238;SDS011;17871;31.584;74.450;2022-12-29T06:00:10;645.83;;;357.92;;
31238;SDS011;17871;31.584;74.450;2022-12-29T06:02:42;641.58;;;347.50;;
31238;SDS011;17871;31.584;74.450;2022-12-29T06:05:15;609.58;;;344.75;;
31238;SDS011;17871;31.584;74.450;2022-12-29T06:07:46;638.67;;;349.83;;
31238;SDS011;17871;31.584;74.450;2022-12-29T06:10:17;638.60;;;351.02;;
31238;SDS011;17871;31.584;74.450;2022-12-29T06:13:02;620.80;;;348.08;;
31238;SDS011;17871;31.584;74.450;2022-12-29T06:15:41;626.33;;;350.52;;
31238;SDS011;17871;31.584;74.450;2022-12-29T06:18:12;629.42;;;348.08;;
31238;SDS011;17871;31.584;74.450;2022-12-29T06:21:09;627.03;;;354.27;;
31238;SDS011;17871;31.584;74.450;2022-12-29T06:23:39;617.50;;;347.98;;
31238;SDS011;17871;31.584;74.450;2022-12-29T06:26:16;633.05;;;354.50;;
31238;SDS011;17871;31.584;74.450;2022-12-29T06:28:53;660.28;;;355.02;;
31238;SDS011;17871;31.584;74.450;2022-12-29T06:31:24;667.58;;;372.27;;
31238;SDS011;17871;31.584;74.450;2022-12-29T06:33:54;689.28;;;391.40;;
31238;SDS011;17871;31.584;74.450;2022-12-29T06:36:30;666.20;;;371.48;;
31238;SDS011;17871;31.584;74.450;2022-12-29T06:39:00;653.38;;;357.38;;
31238;SDS011;17871;31.584;74.450;2022-12-29T06:41:30;657.13;;;359.77;;
31238;SDS011;17871;31.584;74.450;2022-12-29T06:44:26;640.35;;;352.33;;
31238;SDS011;17871;31.584;74.450;2022-12-29T06:47:00;674.80;;;368.33;;
31238;SDS011;17871;31.584;74.450;2022-12-29T06:49:30;655.53;;;367.95;;
31238;SDS011;17871;31.584;74.450;2022-12-29T06:52:00;698.03;;;385.95;;
31238;SDS011;17871;31.584;74.450;2022-12-29T06:54:38;686.10;;;381.13;;
31238;SDS011;17871;31.584;74.450;2022-12-29T06:57:08;711.50;;;382.40;;
31238;SDS011;17871;31.584;74.450;2022-12-29T06:59:38;680.17;;;375.17;;
31238;SDS011;17871;31.584;74.450;2022-12-29T07:02:11;684.63;;;369.42;;
31238;SDS011;17871;31.584;74.450;2022-12-29T07:04:43;676.53;;;373.63;;
31238;SDS011;17871;31.584;74.450;2022-12-29T07:07:13;656.97;;;366.83;;
31238;SDS011;17871;31.584;74.450;2022-12-29T07:09:44;672.05;;;358.80;;
31238;SDS011;17871;31.584;74.450;2022-12-29T07:12:14;628.70;;;353.38;;
31238;SDS011;17871;31.584;74.450;2022-12-29T07:14:44;623.08;;;337.67;;
31238;SDS011;17871;31.584;74.450;2022-12-29T07:17:14;618.42;;;335.95;;
31238;SDS011;17871;31.584;74.450;2022-12-29T07:19:44;631.78;;;327.00;;
31238;SDS011;17871;31.584;74.450;2022-12-29T07:22:13;600.53;;;315.55;;
31238;SDS011;17871;31.584;74.450;2022-12-29T07:24:43;560.03;;;290.73;;
31238;SDS011;17871;31.584;74.450;2022-12-29T07:27:12;568.95;;;289.05;;
31238;SDS011;17871;31.584;74.450;2022-12-29T07:29:43;548.15;;;281.55;;
31238;SDS011;17871;31.584;74.450;2022-12-29T07:32:12;551.63;;;278.52;;
31238;SDS011;17871;31.584;74.450;2022-12-29T07:34:44;533.35;;;280.30;;
31238;SDS011;17871;31.584;74.450;2022-12-29T07:37:17;545.95;;;274.80;;
31238;SDS011;17871;31.584;74.450;2022-12-29T07:39:47;540.78;;;275.83;;
31238;SDS011;17871;31.584;74.450;2022-12-29T07:42:17;526.45;;;271.88;;
31238;SDS011;17871;31.584;74.450;2022-12-29T07:44:50;536.58;;;269.42;;
31238;SDS011;17871;31.584;74.450;2022-12-29T07:47:35;543.25;;;269.50;;
31238;SDS011;17871;31.584;74.450;2022-12-29T07:50:05;526.15;;;265.05;;
31238;SDS011;17871;31.584;74.450;2022-12-29T07:52:35;511.10;;;261.85;;
31238;SDS011;17871;31.584;74.450;2022-12-29T07:55:05;533.55;;;262.67;;
31238;SDS011;17871;31.584;74.450;2022-12-29T07:57:35;511.38;;;255.10;;
31238;SDS011;17871;31.584;74.450;2022-12-29T08:00:05;503.48;;;253.65;;
31238;SDS011;17871;31.584;74.450;2022-12-29T08:02:38;495.55;;;249.57;;
31238;SDS011;17871;31.584;74.450;2022-12-29T08:05:08;495.20;;;246.18;;
31238;SDS011;17871;31.584;74.450;2022-12-29T08:07:38;481.67;;;242.23;;
31238;SDS011;17871;31.584;74.450;2022-12-29T08:10:08;483.23;;;234.52;;
31238;SDS011;17871;31.584;74.450;2022-12-29T08:12:39;482.95;;;238.05;;
31238;SDS011;17871;31.584;74.450;2022-12-29T08:15:10;474.00;;;232.65;;
31238;SDS011;17871;31.584;74.450;2022-12-29T08:17:41;480.48;;;237.43;;
31238;SDS011;17871;31.584;74.450;2022-12-29T08:20:10;469.13;;;235.88;;
31238;SDS011;17871;31.584;74.450;2022-12-29T08:22:41;481.17;;;241.52;;
31238;SDS011;17871;31.584;74.450;2022-12-29T08:25:11;468.65;;;237.38;;
31238;SDS011;17871;31.584;74.450;2022-12-29T08:27:42;467.35;;;232.57;;
31238;SDS011;17871;31.584;74.450;2022-12-29T08:30:12;463.77;;;236.05;;
31238;SDS011;17871;31.584;74.450;2022-12-29T08:32:42;471.08;;;234.32;;
31238;SDS011;17871;31.584;74.450;2022-12-29T08:35:12;482.20;;;236.35;;
31238;SDS011;17871;31.584;74.450;2022-12-29T08:37:41;460.63;;;229.68;;
31238;SDS011;17871;31.584;74.450;2022-12-29T08:40:11;445.75;;;221.52;;
31238;SDS011;17871;31.584;74.450;2022-12-29T08:42:42;450.00;;;226.98;;
31238;SDS011;17871;31.584;74.450;2022-12-29T08:45:12;463.17;;;218.68;;
31238;SDS011;17871;31.584;74.450;2022-12-29T08:47:42;441.33;;;216.20;;
31238;SDS011;17871;31.584;74.450;2022-12-29T08:50:11;441.08;;;212.00;;
31238;SDS011;17871;31.584;74.450;2022-12-29T08:52:41;441.23;;;212.75;;
31238;SDS011;17871;31.584;74.450;2022-12-29T08:55:11;427.27;;;209.20;;
31238;SDS011;17871;31.584;74.450;2022-12-29T08:57:41;436.15;;;208.60;;
31238;SDS011;17871;31.584;74.450;2022-12-29T09:00:16;431.40;;;205.07;;
31238;SDS011;17871;31.584;74.450;2022-12-29T09:02:46;433.77;;;207.52;;
31238;SDS011;17871;31.584;74.450;2022-12-29T09:05:16;426.88;;;211.98;;
31238;SDS011;17871;31.584;74.450;2022-12-29T09:07:46;430.33;;;211.73;;
31238;SDS011;17871;31.584;74.450;2022-12-29T09:10:16;418.00;;;203.30;;
31238;SDS011;17871;31.584;74.450;2022-12-29T09:12:45;433.77;;;211.98;;
31238;SDS011;17871;31.584;74.450;2022-12-29T09:15:15;466.92;;;225.93;;
31238;SDS011;17871;31.584;74.450;2022-12-29T09:17:45;439.52;;;223.65;;
31238;SDS011;17871;31.584;74.450;2022-12-29T09:20:16;423.50;;;206.38;;
31238;SDS011;17871;31.584;74.450;2022-12-29T09:22:48;437.77;;;209.80;;
31238;SDS011;17871;31.584;74.450;2022-12-29T09:25:19;412.70;;;201.73;;
31238;SDS011;17871;31.584;74.450;2022-12-29T09:27:51;421.48;;;201.05;;
31238;SDS011;17871;31.584;74.450;2022-12-29T09:30:22;408.45;;;195.68;;
31238;SDS011;17871;31.584;74.450;2022-12-29T09:32:53;420.35;;;198.20;;
31238;SDS011;17871;31.584;74.450;2022-12-29T09:35:23;412.33;;;202.63;;
31238;SDS011;17871;31.584;74.450;2022-12-29T09:37:53;413.20;;;200.35;;
31238;SDS011;17871;31.584;74.450;2022-12-29T09:40:26;401.70;;;199.70;;
31238;SDS011;17871;31.584;74.450;2022-12-29T09:48:17;401.88;;;196.45;;
31238;SDS011;17871;31.584;74.450;2022-12-29T09:51:02;409.58;;;193.05;;
31238;SDS011;17871;31.584;74.450;2022-12-29T09:53:44;404.80;;;196.15;;
31238;SDS011;17871;31.584;74.450;2022-12-29T09:56:21;427.52;;;193.70;;
31238;SDS011;17871;31.584;74.450;2022-12-29T10:04:21;430.33;;;197.23;;
31238;SDS011;17871;31.584;74.450;2022-12-29T10:06:53;426.40;;;196.95;;
31238;SDS011;17871;31.584;74.450;2022-12-29T10:18:43;400.15;;;185.15;;
31238;SDS011;17871;31.584;74.450;2022-12-29T10:21:34;401.00;;;187.95;;
31238;SDS011;17871;31.584;74.450;2022-12-29T10:24:08;400.95;;;187.38;;
31238;SDS011;17871;31.584;74.450;2022-12-29T10:26:41;394.45;;;185.77;;
31238;SDS011;17871;31.584;74.450;2022-12-29T10:31:47;389.02;;;178.75;;
31238;SDS011;17871;31.584;74.450;2022-12-29T10:34:34;373.30;;;178.60;;
31238;SDS011;17871;31.584;74.450;2022-12-29T10:40:09;377.17;;;176.20;;
31238;SDS011;17871;31.584;74.450;2022-12-29T10:43:02;347.27;;;162.32;;
31238;SDS011;17871;31.584;74.450;2022-12-29T10:45:47;360.15;;;170.63;;
31238;SDS011;17871;31.584;74.450;2022-12-29T10:48:22;368.75;;;171.27;;
31238;SDS011;17871;31.584;74.450;2022-12-29T10:51:00;358.98;;;165.77;;
31238;SDS011;17871;31.584;74.450;2022-12-29T10:53:35;365.25;;;163.68;;
31238;SDS011;17871;31.584;74.450;2022-12-29T10:59:23;310.33;;;146.02;;
31238;SDS011;17871;31.584;74.450;2022-12-29T11:04:42;314.98;;;147.02;;
31238;SDS011;17871;31.584;74.450;2022-12-29T11:07:32;301.38;;;145.02;;
31238;SDS011;17871;31.584;74.450;2022-12-29T11:13:00;294.67;;;139.63;;
31238;SDS011;17871;31.584;74.450;2022-12-29T11:15:39;310.15;;;139.27;;
31238;SDS011;17871;31.584;74.450;2022-12-29T11:18:23;275.58;;;132.80;;
31238;SDS011;17871;31.584;74.450;2022-12-29T11:20:56;265.75;;;129.50;;
31238;SDS011;17871;31.584;74.450;2022-12-29T11:23:30;261.73;;;126.38;;
31238;SDS011;17871;31.584;74.450;2022-12-29T11:31:44;272.52;;;127.00;;
31238;SDS011;17871;31.584;74.450;2022-12-29T11:34:19;263.33;;;125.80;;
31238;SDS011;17871;31.584;74.450;2022-12-29T11:36:52;248.57;;;120.10;;
31238;SDS011;17871;31.584;74.450;2022-12-29T11:42:16;286.13;;;125.18;;
31238;SDS011;17871;31.584;74.450;2022-12-29T11:44:50;304.65;;;142.32;;
31238;SDS011;17871;31.584;74.450;2022-12-29T11:47:26;270.05;;;133.05;;
31238;SDS011;17871;31.584;74.450;2022-12-29T11:50:02;275.92;;;133.27;;
31238;SDS011;17871;31.584;74.450;2022-12-29T11:52:34;272.05;;;130.55;;
31238;SDS011;17871;31.584;74.450;2022-12-29T11:55:16;303.88;;;142.43;;
31238;SDS011;17871;31.584;74.450;2022-12-29T11:57:50;294.60;;;144.68;;
31238;SDS011;17871;31.584;74.450;2022-12-29T12:00:21;308.20;;;147.27;;
31238;SDS011;17871;31.584;74.450;2022-12-29T12:03:03;351.20;;;160.02;;
31238;SDS011;17871;31.584;74.450;2022-12-29T12:14:35;371.35;;;172.60;;
31238;SDS011;17871;31.584;74.450;2022-12-29T12:23:06;319.75;;;152.75;;
31238;SDS011;17871;31.584;74.450;2022-12-29T12:25:59;298.77;;;140.23;;
31238;SDS011;17871;31.584;74.450;2022-12-29T12:28:56;283.08;;;137.32;;
31238;SDS011;17871;31.584;74.450;2022-12-29T12:34:31;328.23;;;151.45;;
31238;SDS011;17871;31.584;74.450;2022-12-29T12:55:02;307.75;;;154.98;;
31238;SDS011;17871;31.584;74.450;2022-12-29T12:58:04;315.13;;;146.85;;
31238;SDS011;17871;31.584;74.450;2022-12-29T13:03:58;308.70;;;144.85;;
31238;SDS011;17871;31.584;74.450;2022-12-29T13:31:42;457.80;;;215.90;;
31238;SDS011;17871;31.584;74.450;2022-12-29T13:37:12;471.48;;;221.43;;
31238;SDS011;17871;31.584;74.450;2022-12-29T13:40:01;487.65;;;230.10;;
31238;SDS011;17871;31.584;74.450;2022-12-29T13:42:39;492.05;;;232.55;;
31238;SDS011;17871;31.584;74.450;2022-12-29T13:45:20;499.60;;;250.38;;
31238;SDS011;17871;31.584;74.450;2022-12-29T13:48:01;490.90;;;239.20;;
31238;SDS011;17871;31.584;74.450;2022-12-29T13:50:38;490.13;;;243.18;;
31238;SDS011;17871;31.584;74.450;2022-12-29T13:53:14;500.50;;;246.80;;
31238;SDS011;17871;31.584;74.450;2022-12-29T13:56:15;489.45;;;241.68;;
31238;SDS011;17871;31.584;74.450;2022-12-29T13:59:14;514.33;;;252.05;;
31238;SDS011;17871;31.584;74.450;2022-12-29T14:02:25;507.05;;;251.00;;
31238;SDS011;17871;31.584;74.450;2022-12-29T14:05:00;496.08;;;240.07;;
31238;SDS011;17871;31.584;74.450;2022-12-29T14:08:01;497.17;;;240.30;;
31238;SDS011;17871;31.584;74.450;2022-12-29T14:13:23;464.23;;;220.07;;
31238;SDS011;17871;31.584;74.450;2022-12-29T14:15:55;465.33;;;221.57;;
31238;SDS011;17871;31.584;74.450;2022-12-29T14:18:34;447.63;;;211.68;;
31238;SDS011;17871;31.584;74.450;2022-12-29T14:21:21;463.42;;;214.70;;
31238;SDS011;17871;31.584;74.450;2022-12-29T14:33:00;418.08;;;196.27;;
31238;SDS011;17871;31.584;74.450;2022-12-29T14:38:14;418.75;;;196.93;;
31238;SDS011;17871;31.584;74.450;2022-12-29T14:40:47;441.75;;;206.45;;
31238;SDS011;17871;31.584;74.450;2022-12-29T14:43:22;439.45;;;207.40;;
31238;SDS011;17871;31.584;74.450;2022-12-29T14:45:55;443.23;;;206.02;;
31238;SDS011;17871;31.584;74.450;2022-12-29T14:48:29;433.38;;;203.63;;
31238;SDS011;17871;31.584;74.450;2022-12-29T14:51:15;422.92;;;199.02;;
31238;SDS011;17871;31.584;74.450;2022-12-29T14:53:59;417.60;;;200.05;;
31238;SDS011;17871;31.584;74.450;2022-12-29T14:56:49;357.35;;;165.73;;
31238;SDS011;17871;31.584;74.450;2022-12-29T14:59:18;333.17;;;148.93;;
31238;SDS011;17871;31.584;74.450;2022-12-29T15:01:50;341.50;;;154.18;;
31238;SDS011;17871;31.584;74.450;2022-12-29T15:04:30;338.40;;;157.77;;
31238;SDS011;17871;31.584;74.450;2022-12-29T15:07:02;323.45;;;145.25;;
31238;SDS011;17871;31.584;74.450;2022-12-29T15:09:43;329.63;;;151.13;;
31238;SDS011;17871;31.584;74.450;2022-12-29T15:14:53;249.73;;;116.35;;
31238;SDS011;17871;31.584;74.450;2022-12-29T15:17:25;240.52;;;114.50;;
31238;SDS011;17871;31.584;74.450;2022-12-29T15:19:55;236.63;;;106.35;;
31238;SDS011;17871;31.584;74.450;2022-12-29T15:22:27;213.80;;;103.20;;
31238;SDS011;17871;31.584;74.450;2022-12-29T15:24:57;215.35;;;101.60;;
31238;SDS011;17871;31.584;74.450;2022-12-29T15:27:27;202.07;;;95.00;;
31238;SDS011;17871;31.584;74.450;2022-12-29T15:30:00;192.90;;;92.30;;
31238;SDS011;17871;31.584;74.450;2022-12-29T15:32:45;188.95;;;88.53;;
31238;SDS011;17871;31.584;74.450;2022-12-29T15:37:58;190.40;;;89.35;;
31238;SDS011;17871;31.584;74.450;2022-12-29T15:40:29;184.02;;;87.90;;
31238;SDS011;17871;31.584;74.450;2022-12-29T15:43:24;202.52;;;92.05;;
31238;SDS011;17871;31.584;74.450;2022-12-29T15:46:00;206.55;;;96.00;;
31238;SDS011;17871;31.584;74.450;2022-12-29T15:48:31;199.80;;;92.88;;
31238;SDS011;17871;31.584;74.450;2022-12-29T15:51:02;219.52;;;102.63;;
31238;SDS011;17871;31.584;74.450;2022-12-29T15:53:32;217.55;;;105.75;;
31238;SDS011;17871;31.584;74.450;2022-12-29T15:56:06;254.60;;;109.60;;
31238;SDS011;17871;31.584;74.450;2022-12-29T15:58:40;244.82;;;115.72;;
31238;SDS011;17871;31.584;74.450;2022-12-29T16:04:01;266.10;;;124.13;;
31238;SDS011;17871;31.584;74.450;2022-12-29T16:06:35;271.48;;;123.63;;
31238;SDS011;17871;31.584;74.450;2022-12-29T16:09:14;285.33;;;125.47;;
31238;SDS011;17871;31.584;74.450;2022-12-29T16:11:47;256.02;;;119.40;;
31238;SDS011;17871;31.584;74.450;2022-12-29T16:14:41;257.42;;;124.00;;
31238;SDS011;17871;31.584;74.450;2022-12-29T16:17:15;264.35;;;115.53;;
31238;SDS011;17871;31.584;74.450;2022-12-29T16:19:52;241.57;;;113.03;;
31238;SDS011;17871;31.584;74.450;2022-12-29T16:22:33;257.45;;;112.32;;
31238;SDS011;17871;31.584;74.450;2022-12-29T16:27:47;242.23;;;112.47;;
31238;SDS011;17871;31.584;74.450;2022-12-29T16:30:21;234.65;;;106.82;;
31238;SDS011;17871;31.584;74.450;2022-12-29T16:33:01;232.85;;;107.28;;
31238;SDS011;17871;31.584;74.450;2022-12-29T16:35:46;246.50;;;107.78;;
31238;SDS011;17871;31.584;74.450;2022-12-29T16:38:17;246.27;;;105.75;;
31238;SDS011;17871;31.584;74.450;2022-12-29T16:40:50;224.75;;;99.90;;
31238;SDS011;17871;31.584;74.450;2022-12-29T16:43:35;234.57;;;107.22;;
31238;SDS011;17871;31.584;74.450;2022-12-29T16:46:32;231.57;;;103.43;;
31238;SDS011;17871;31.584;74.450;2022-12-29T16:49:01;229.10;;;103.68;;
31238;SDS011;17871;31.584;74.450;2022-12-29T16:51:32;228.70;;;105.18;;
31238;SDS011;17871;31.584;74.450;2022-12-29T16:54:04;222.55;;;101.80;;
31238;SDS011;17871;31.584;74.450;2022-12-29T16:56:35;217.50;;;100.75;;
31238;SDS011;17871;31.584;74.450;2022-12-29T16:59:07;222.75;;;98.90;;
31238;SDS011;17871;31.584;74.450;2022-12-29T17:01:52;211.63;;;99.55;;
31238;SDS011;17871;31.584;74.450;2022-12-29T17:04:22;211.60;;;99.45;;
31238;SDS011;17871;31.584;74.450;2022-12-29T17:06:52;231.73;;;103.15;;
31238;SDS011;17871;31.584;74.450;2022-12-29T17:09:23;204.88;;;99.60;;
31238;SDS011;17871;31.584;74.450;2022-12-29T17:11:55;241.35;;;103.03;;
31238;SDS011;17871;31.584;74.450;2022-12-29T17:19:42;207.68;;;95.40;;
31238;SDS011;17871;31.584;74.450;2022-12-29T17:22:19;225.52;;;107.10;;
31238;SDS011;17871;31.584;74.450;2022-12-29T17:24:57;244.65;;;105.78;;
31238;SDS011;17871;31.584;74.450;2022-12-29T17:30:09;212.63;;;107.25;;
31238;SDS011;17871;31.584;74.450;2022-12-29T17:32:43;228.23;;;105.97;;
31238;SDS011;17871;31.584;74.450;2022-12-29T17:35:18;241.45;;;110.70;;